createdAt,value
2023-03-07T00:01:33.660Z,5.22
2023-03-07T00:05:35.136Z,11.43
2023-03-07T00:09:36.621Z,19.45
2023-03-07T00:13:38.247Z,14.18
2023-03-07T00:17:40.089Z,19.27
2023-03-07T00:21:41.551Z,14.38
2023-03-07T00:25:43.451Z,9.68
2023-03-07T00:29:44.881Z,19.90
2023-03-07T00:33:47.015Z,15.60
2023-03-07T00:37:48.404Z,11.88
2023-03-07T00:41:49.809Z,15.25
2023-03-07T00:45:51.382Z,10.85
2023-03-07T00:49:52.894Z,15.77
2023-03-07T00:53:54.386Z,20.15
2023-03-07T00:57:55.851Z,13.52
2023-03-07T01:01:57.266Z,13.30
2023-03-07T01:06:03.517Z,25.65
2023-03-07T01:10:05.378Z,34.10
2023-03-07T01:14:06.953Z,23.20
2023-03-07T01:18:10.595Z,20.80
2023-03-07T01:22:11.999Z,20.08
2023-03-07T01:26:18.742Z,17.30
2023-03-07T01:30:20.277Z,20.08
2023-03-07T01:34:21.846Z,25.20
2023-03-07T01:38:23.341Z,31.83
2023-03-07T01:42:25.001Z,23.83
2023-03-07T01:46:49.977Z,28.25
2023-03-07T01:50:51.558Z,22.33
2023-03-07T01:54:58.281Z,21.02
2023-03-07T01:59:00.367Z,11.90
2023-03-07T02:03:01.785Z,26.25
2023-03-07T02:07:03.543Z,29.60
2023-03-07T02:11:05.886Z,29.17
2023-03-07T02:15:11.825Z,27.40
2023-03-07T02:19:33.180Z,27.77
2023-03-07T02:23:50.526Z,30.80
2023-03-07T02:27:54.803Z,29.77
2023-03-07T02:31:56.255Z,24.95
2023-03-07T02:36:21.914Z,27.90
2023-03-07T02:40:27.005Z,32.85
2023-03-07T02:44:28.504Z,26.48
2023-03-07T02:48:30.099Z,29.48
2023-03-07T02:52:31.605Z,33.15
2023-03-07T02:56:33.029Z,31.58
2023-03-07T03:00:34.593Z,21.77
2023-03-07T03:04:36.105Z,43.55
2023-03-07T03:08:37.517Z,35.05
2023-03-07T03:12:39.038Z,35.17
2023-03-07T03:16:41.261Z,36.65
2023-03-07T03:20:42.761Z,32.40
2023-03-07T03:24:44.230Z,17.20
2023-03-07T03:28:45.680Z,39.30
2023-03-07T03:32:47.236Z,35.40
2023-03-07T03:36:48.676Z,24.02
2023-03-07T03:40:50.126Z,31.90
2023-03-07T03:44:51.622Z,26.67
2023-03-07T03:48:54.540Z,36.92
2023-03-07T03:52:56.017Z,37.70
2023-03-07T03:56:57.821Z,28.20
2023-03-07T04:01:07.633Z,34.40
2023-03-07T04:05:09.258Z,29.42
2023-03-07T04:09:10.726Z,31.92
2023-03-07T04:13:12.161Z,18.90
2023-03-07T04:17:13.585Z,26.73
2023-03-07T04:21:15.013Z,25.25
2023-03-07T04:25:16.549Z,35.60
2023-03-07T04:29:17.982Z,17.35
2023-03-07T04:33:20.327Z,37.42
2023-03-07T04:37:21.722Z,25.88
2023-03-07T04:41:26.521Z,23.75
2023-03-07T04:45:27.985Z,34.78
2023-03-07T04:49:29.409Z,23.75
2023-03-07T04:53:30.926Z,29.20
2023-03-07T04:57:32.387Z,29.65
2023-03-07T05:01:33.864Z,16.75
2023-03-07T05:05:37.575Z,19.27
2023-03-07T05:09:39.179Z,20.45
2023-03-07T05:13:40.672Z,41.58
2023-03-07T05:17:42.114Z,24.25
2023-03-07T05:21:44.152Z,20.38
2023-03-07T05:25:47.037Z,35.15
2023-03-07T05:29:48.559Z,29.67
2023-03-07T05:33:49.970Z,26.75
2023-03-07T05:37:52.300Z,32.53
2023-03-07T05:41:53.750Z,24.73
2023-03-07T05:45:55.266Z,24.55
2023-03-07T05:49:56.837Z,40.45
2023-03-07T05:53:58.284Z,24.48
2023-03-07T05:57:59.944Z,18.98
2023-03-07T06:02:01.418Z,23.60
2023-03-07T06:06:03.221Z,34.88
2023-03-07T06:10:05.090Z,26.98
2023-03-07T06:14:06.568Z,26.45
2023-03-07T06:18:07.999Z,24.13
2023-03-07T06:22:09.497Z,29.80
2023-03-07T06:26:12.485Z,25.70
2023-03-07T06:30:14.338Z,19.58
2023-03-07T06:34:15.768Z,31.33
2023-03-07T06:38:17.668Z,19.88
2023-03-07T06:42:19.091Z,31.30
2023-03-07T06:46:21.596Z,26.08
2023-03-07T06:50:33.483Z,27.60
2023-03-07T06:54:36.470Z,24.48
2023-03-07T06:58:37.947Z,26.60
2023-03-07T07:02:39.479Z,25.27
2023-03-07T07:06:41.056Z,23.05
2023-03-07T07:10:42.543Z,11.95
2023-03-07T07:14:44.083Z,20.67
2023-03-07T07:18:46.220Z,26.70
2023-03-07T07:22:47.676Z,12.10
2023-03-07T07:26:49.344Z,19.60
2023-03-07T07:30:51.266Z,20.92
2023-03-07T07:34:52.819Z,18.25
2023-03-07T07:38:54.455Z,21.65
2023-03-07T07:42:55.956Z,15.38
2023-03-07T07:46:57.836Z,24.98
2023-03-07T07:51:03.539Z,21.33
2023-03-07T07:55:05.583Z,26.77
2023-03-07T07:59:07.099Z,15.40
2023-03-07T08:03:08.612Z,23.48
2023-03-07T08:07:10.175Z,18.95
2023-03-07T08:11:11.642Z,19.88
2023-03-07T08:15:13.620Z,14.27
2023-03-07T08:19:15.282Z,14.15
2023-03-07T08:23:16.858Z,11.38
2023-03-07T08:27:18.351Z,10.50
2023-03-07T08:31:25.679Z,19.45
2023-03-07T08:35:28.392Z,12.98
2023-03-07T08:39:29.872Z,9.35
2023-03-07T08:43:32.902Z,23.55
2023-03-07T08:47:34.535Z,8.52
2023-03-07T08:51:36.023Z,16.33
2023-03-07T08:55:37.470Z,16.17
2023-03-07T08:59:38.975Z,14.52
2023-03-07T09:03:40.594Z,10.32
2023-03-07T09:07:43.024Z,10.45
2023-03-07T09:11:44.496Z,7.95
2023-03-07T09:15:46.042Z,13.38
2023-03-07T09:19:47.601Z,7.00
2023-03-07T09:23:49.087Z,8.13
2023-03-07T09:27:53.342Z,11.73
2023-03-07T09:31:54.909Z,9.98
2023-03-07T09:35:56.470Z,11.45
2023-03-07T09:39:57.968Z,9.30
2023-03-07T09:44:41.904Z,7.72
2023-03-07T09:48:53.120Z,7.82
2023-03-07T09:53:01.810Z,10.20
2023-03-07T09:57:05.669Z,5.80
2023-03-07T10:01:12.250Z,8.35
2023-03-07T10:05:39.512Z,9.85
2023-03-07T10:09:41.866Z,8.25
2023-03-07T10:13:48.327Z,6.13
2023-03-07T10:17:52.778Z,7.78
2023-03-07T10:22:43.907Z,9.07
2023-03-07T10:27:00.668Z,5.53
2023-03-07T10:31:19.444Z,10.80
2023-03-07T10:35:24.427Z,10.15
2023-03-07T10:39:50.562Z,12.63
2023-03-07T10:43:53.880Z,12.48
2023-03-07T10:47:55.581Z,11.65
2023-03-07T10:52:06.614Z,11.40
2023-03-07T10:56:09.437Z,6.35
2023-03-07T11:00:17.943Z,7.13
2023-03-07T11:04:21.693Z,9.27
2023-03-07T11:08:31.432Z,10.25
2023-03-07T11:12:45.484Z,7.57
2023-03-07T11:16:51.193Z,5.50
2023-03-07T11:20:52.751Z,9.10
2023-03-07T11:25:08.344Z,5.93
2023-03-07T11:29:13.056Z,8.98
2023-03-07T11:33:44.332Z,8.60
2023-03-07T11:38:02.943Z,8.20
2023-03-07T11:42:15.713Z,5.15
2023-03-07T11:46:42.090Z,7.60
2023-03-07T11:50:52.596Z,5.53
2023-03-07T11:54:54.019Z,9.02
2023-03-07T11:58:55.405Z,3.80
2023-03-07T12:03:18.653Z,3.47
2023-03-07T12:07:48.988Z,5.85
2023-03-07T12:12:16.274Z,5.03
2023-03-07T12:16:42.147Z,1.50
2023-03-07T12:21:17.912Z,2.20
2023-03-07T12:25:33.250Z,4.40
2023-03-07T12:29:42.713Z,3.72
2023-03-07T12:33:54.113Z,2.55
2023-03-07T12:38:09.215Z,2.85
2023-03-07T12:42:32.485Z,5.55
2023-03-07T12:46:52.693Z,2.13
2023-03-07T12:51:00.004Z,1.35
2023-03-07T12:55:08.792Z,3.50
2023-03-07T12:59:15.577Z,3.80
2023-03-07T13:03:41.545Z,1.70
2023-03-07T13:07:44.416Z,3.95
2023-03-07T13:12:07.347Z,5.20
2023-03-07T13:16:11.696Z,1.42
2023-03-07T13:20:19.019Z,1.02
2023-03-07T13:24:36.461Z,3.60
2023-03-07T13:28:39.488Z,2.53
2023-03-07T13:32:55.847Z,6.75
2023-03-07T13:36:57.347Z,2.85
2023-03-07T13:41:01.555Z,3.13
2023-03-07T13:45:38.013Z,3.75
2023-03-07T13:49:42.133Z,2.63
2023-03-07T13:53:46.137Z,4.40
2023-03-07T13:57:48.928Z,2.08
2023-03-07T14:02:03.329Z,4.28
2023-03-07T14:06:20.578Z,4.25
2023-03-07T14:10:26.447Z,3.60
2023-03-07T14:14:46.698Z,1.52
2023-03-07T14:19:00.269Z,3.55
2023-03-07T14:23:34.861Z,2.85
2023-03-07T14:27:54.676Z,8.57
2023-03-07T14:31:58.327Z,4.15
2023-03-07T14:36:00.467Z,2.25
2023-03-07T14:40:09.858Z,1.73
2023-03-07T14:44:33.838Z,3.38
2023-03-07T14:48:52.837Z,2.47
2023-03-07T14:57:24.035Z,1.83
2023-03-07T15:01:35.474Z,0.95
2023-03-07T15:05:47.415Z,3.95
2023-03-07T15:09:48.970Z,3.97
2023-03-07T15:13:52.458Z,2.10
2023-03-07T15:17:58.410Z,0.82
2023-03-07T15:22:02.517Z,2.00
2023-03-07T15:26:06.635Z,2.13
2023-03-07T15:30:22.869Z,2.33
2023-03-07T15:34:30.632Z,2.22
2023-03-07T15:38:33.197Z,1.80
2023-03-07T15:42:52.437Z,1.02
2023-03-07T15:46:56.079Z,1.40
2023-03-07T15:51:01.017Z,2.50
2023-03-07T15:55:08.105Z,3.10
2023-03-07T15:59:43.832Z,1.83
2023-03-07T16:03:49.628Z,3.05
2023-03-07T16:07:53.388Z,2.75
2023-03-07T16:11:55.197Z,2.42
2023-03-07T16:16:01.017Z,5.75
2023-03-07T16:20:04.433Z,1.23
2023-03-07T16:24:06.131Z,2.90
2023-03-07T16:28:11.691Z,2.60
2023-03-07T16:32:18.418Z,1.92
2023-03-07T16:36:20.096Z,4.28
2023-03-07T16:40:22.821Z,5.95
2023-03-07T16:44:24.582Z,3.20
2023-03-07T16:48:26.145Z,3.55
2023-03-07T16:52:27.609Z,4.38
2023-03-07T16:56:33.158Z,4.93
2023-03-07T17:00:34.728Z,3.53
2023-03-07T17:04:36.228Z,2.90
2023-03-07T17:08:37.643Z,2.90
2023-03-07T17:12:41.039Z,7.85
2023-03-07T17:16:45.127Z,4.68
2023-03-07T17:20:46.692Z,5.38
2023-03-07T17:24:48.146Z,9.82
2023-03-07T17:28:50.614Z,3.13
2023-03-07T17:32:52.235Z,4.72
2023-03-07T17:36:53.893Z,5.97
2023-03-07T17:40:56.417Z,4.07
2023-03-07T17:44:57.834Z,3.13
2023-03-07T17:48:59.240Z,3.35
2023-03-07T17:53:00.762Z,2.08
2023-03-07T17:57:02.516Z,5.82
2023-03-07T18:01:08.450Z,3.63
2023-03-07T18:05:12.823Z,2.63
2023-03-07T18:09:15.224Z,4.03
2023-03-07T18:13:16.978Z,2.40
2023-03-07T18:17:18.460Z,3.38
2023-03-07T18:21:23.444Z,6.25
2023-03-07T18:25:25.704Z,2.80
2023-03-07T18:29:28.164Z,3.97
2023-03-07T18:33:31.597Z,2.47
2023-03-07T18:37:33.084Z,2.67
2023-03-07T18:41:34.500Z,1.15
2023-03-07T18:45:35.988Z,3.05
2023-03-07T18:49:38.790Z,2.15
2023-03-07T18:53:41.264Z,1.42
2023-03-07T18:57:45.704Z,3.40
2023-03-07T19:01:50.106Z,5.43
2023-03-07T19:05:52.221Z,7.07
2023-03-07T19:09:53.919Z,6.00
2023-03-07T19:13:56.243Z,4.40
2023-03-07T19:17:57.690Z,5.13
2023-03-07T19:21:59.128Z,5.35
2023-03-07T19:26:05.315Z,3.13
2023-03-07T19:30:07.312Z,12.48
2023-03-07T19:34:08.780Z,7.40
2023-03-07T19:38:10.233Z,2.38
2023-03-07T19:42:11.660Z,2.40
2023-03-07T19:46:15.243Z,5.57
2023-03-07T19:50:17.882Z,6.53
2023-03-07T19:54:20.429Z,4.90
2023-03-07T19:58:21.938Z,8.45
2023-03-07T20:02:23.382Z,6.70
2023-03-07T20:06:28.015Z,3.17
2023-03-07T20:10:29.560Z,8.18
2023-03-07T20:14:31.016Z,7.28
2023-03-07T20:18:32.782Z,5.45
2023-03-07T20:22:34.488Z,12.75
2023-03-07T20:26:38.210Z,7.25
2023-03-07T20:30:40.767Z,5.03
2023-03-07T20:34:43.080Z,12.07
2023-03-07T20:38:48.853Z,11.88
2023-03-07T20:42:50.298Z,11.85
2023-03-07T20:46:51.776Z,6.55
2023-03-07T20:50:53.220Z,6.68
2023-03-07T20:54:54.662Z,6.38
2023-03-07T20:58:56.996Z,9.15
2023-03-07T21:03:05.712Z,9.88
2023-03-07T21:07:07.685Z,6.13
2023-03-07T21:11:15.276Z,4.45
2023-03-07T21:15:16.730Z,3.38
2023-03-07T21:19:18.236Z,9.93
2023-03-07T21:23:19.702Z,7.88
2023-03-07T21:27:21.139Z,4.20
2023-03-07T21:31:25.663Z,5.03
2023-03-07T21:35:27.192Z,5.75
2023-03-07T21:39:28.677Z,6.82
2023-03-07T21:43:30.241Z,7.30
2023-03-07T21:47:31.774Z,6.35
2023-03-07T21:51:33.571Z,6.50
2023-03-07T21:55:35.277Z,5.93
2023-03-07T21:59:36.778Z,5.00
2023-03-07T22:03:38.880Z,5.10
2023-03-07T22:07:40.330Z,8.23
2023-03-07T22:11:41.845Z,5.70
2023-03-07T22:15:43.291Z,5.53
2023-03-07T22:19:44.705Z,5.80
2023-03-07T22:23:46.320Z,5.25
2023-03-07T22:27:47.781Z,7.30
2023-03-07T22:31:49.279Z,6.30
2023-03-07T22:36:01.885Z,4.63
2023-03-07T22:40:03.517Z,4.55
2023-03-07T22:44:04.977Z,6.47
2023-03-07T22:48:06.435Z,4.93
2023-03-07T22:52:07.969Z,6.68
2023-03-07T22:56:17.664Z,4.28
2023-03-07T23:00:19.574Z,4.47
2023-03-07T23:04:21.118Z,4.45
2023-03-07T23:08:22.590Z,4.35
2023-03-07T23:12:24.052Z,5.82
2023-03-07T23:16:28.804Z,10.05
2023-03-07T23:20:30.240Z,2.08
2023-03-07T23:24:31.656Z,4.68
2023-03-07T23:28:33.946Z,3.95
2023-03-07T23:32:35.788Z,5.45
2023-03-07T23:36:37.465Z,3.10
2023-03-07T23:40:39.308Z,1.98
2023-03-07T23:44:40.831Z,1.83
2023-03-07T23:48:42.218Z,2.47
2023-03-07T23:52:43.934Z,7.78
2023-03-07T23:56:45.450Z,4.93
